PWSweather.com
Personal Weather Stations
Station Observations
TOBYTEX1
Castle Hills North, Lewisville, TX 75056

Castle Hills NorthLewisville, TX 75056

Lat: 33.053555, Lon: -96.909778

Elevation: 527

Station Type: Davis Vantage Pro2 Plus

Latest ConditionsUpdated 6:01:03 AM CST Sunday, Jan 20, 2019
Currently Today's Max Today's Min Today's Average
Temperature 26.6°F-3.0°C 30.4°F-0.9°C 26.4°F-3.1°C 28.2°F-2.1°C
Dew Point 21.2°F-6.0°C 22.1°F-5.5°C 20.7°F-6.3°C 21.4°F-5.9°C
Winds Calm Calm 2.0 mph -3.2 kmh - - 0.5 mph 0.8 kmh
Wind Gusts -- 11.0 mph17.7 kmh - -
Humidity 80% 80% 71% 75%
Pressure 30.39 in1029.1 mb 30.40 in1029.5 mb 30.36 in1028.1 mb -
Hour Temp Dew Point Humidity Winds Wind Gusts Pressure Precip Precip Rate Daily Precip Total
06:01 AM 26.6°F-3.0°C 21.2°F-6.0°C 80% Calm Calm -- 30.39 in1029.1 mb 0.00 in0.0 mm 0.00 in0.0 mm 0.00 in0.0 mm
05:55 AM 26.6°F-3.0°C 21.2°F-6.0°C 80% Calm Calm 0.9 mph1.4 kmh 30.38 in1028.8 mb 0.00 in0.0 mm 0.00 in0.0 mm 0.00 in0.0 mm
05:50 AM 26.4°F-3.1°C 20.8°F-6.2°C 79% Calm Calm -- 30.38 in1028.8 mb 0.00 in0.0 mm 0.00 in0.0 mm 0.00 in0.0 mm
05:45 AM 26.4°F-3.1°C 20.8°F-6.2°C 79% Calm Calm -- 30.37 in1028.4 mb 0.00 in0.0 mm 0.00 in0.0 mm 0.00 in0.0 mm
05:40 AM 26.4°F-3.1°C 20.8°F-6.2°C 79% Calm Calm -- 30.36 in1028.1 mb 0.00 in0.0 mm 0.00 in0.0 mm 0.00 in0.0 mm
05:35 AM 26.4°F-3.1°C 20.8°F-6.2°C 79% Calm Calm -- 30.36 in1028.1 mb 0.00 in0.0 mm 0.00 in0.0 mm 0.00 in0.0 mm
05:30 AM 26.4°F-3.1°C 20.8°F-6.2°C 79% Calm Calm -- 30.37 in1028.4 mb 0.00 in0.0 mm 0.00 in0.0 mm 0.00 in0.0 mm
05:25 AM 26.6°F-3.0°C 21.0°F-6.1°C 79% Calm Calm -- 30.37 in1028.4 mb 0.00 in0.0 mm 0.00 in0.0 mm 0.00 in0.0 mm
05:20 AM 26.6°F-3.0°C 21.0°F-6.1°C 79% Calm Calm -- 30.37 in1028.4 mb 0.00 in0.0 mm 0.00 in0.0 mm 0.00 in0.0 mm
05:15 AM 26.6°F-3.0°C 20.7°F-6.3°C 78% Calm Calm -- 30.37 in1028.4 mb 0.00 in0.0 mm 0.00 in0.0 mm 0.00 in0.0 mm
05:10 AM 26.6°F-3.0°C 20.7°F-6.3°C 78% Calm Calm -- 30.38 in1028.8 mb 0.00 in0.0 mm 0.00 in0.0 mm 0.00 in0.0 mm
05:05 AM 26.8°F-2.9°C 20.8°F-6.2°C 78% Calm Calm 2.0 mph3.2 kmh 30.37 in1028.4 mb 0.00 in0.0 mm 0.00 in0.0 mm 0.00 in0.0 mm
05:00 AM 26.8°F-2.9°C 20.8°F-6.2°C 78% Calm Calm 2.9 mph4.7 kmh 30.37 in1028.4 mb 0.00 in0.0 mm 0.00 in0.0 mm 0.00 in0.0 mm
04:55 AM 26.8°F-2.9°C 20.8°F-6.2°C 78% Calm Calm 4.9 mph7.9 kmh 30.37 in1028.4 mb 0.00 in0.0 mm 0.00 in0.0 mm 0.00 in0.0 mm
04:50 AM 26.8°F-2.9°C 20.8°F-6.2°C 78% Calm Calm 4.0 mph6.4 kmh 30.37 in1028.4 mb 0.00 in0.0 mm 0.00 in0.0 mm 0.00 in0.0 mm
04:45 AM 27.0°F-2.8°C 21.0°F-6.1°C 78% Calm Calm 2.0 mph3.2 kmh 30.37 in1028.4 mb 0.00 in0.0 mm 0.00 in0.0 mm 0.00 in0.0 mm
04:40 AM 27.0°F-2.8°C 21.0°F-6.1°C 78% Calm Calm 2.9 mph4.7 kmh 30.37 in1028.4 mb 0.00 in0.0 mm 0.00 in0.0 mm 0.00 in0.0 mm
04:35 AM 27.0°F-2.8°C 21.0°F-6.1°C 78% Calm Calm 4.0 mph6.4 kmh 30.37 in1028.4 mb 0.00 in0.0 mm 0.00 in0.0 mm 0.00 in0.0 mm
04:30 AM 27.0°F-2.8°C 21.0°F-6.1°C 78% Calm Calm 2.0 mph3.2 kmh 30.37 in1028.4 mb 0.00 in0.0 mm 0.00 in0.0 mm 0.00 in0.0 mm
04:25 AM 27.1°F-2.7°C 21.2°F-6.0°C 78% Calm Calm 0.9 mph1.4 kmh 30.37 in1028.4 mb 0.00 in0.0 mm 0.00 in0.0 mm 0.00 in0.0 mm
04:19 AM 27.1°F-2.7°C 21.2°F-6.0°C 78% Calm Calm 2.0 mph3.2 kmh 30.37 in1028.4 mb 0.00 in0.0 mm 0.00 in0.0 mm 0.00 in0.0 mm
04:14 AM 27.3°F-2.6°C 21.4°F-5.9°C 78% Calm Calm 2.9 mph4.7 kmh 30.38 in1028.8 mb 0.00 in0.0 mm 0.00 in0.0 mm 0.00 in0.0 mm
04:09 AM 27.3°F-2.6°C 21.4°F-5.9°C 78% 0.9 mph NW1.4 kmh NW 2.9 mph4.7 kmh 30.38 in1028.8 mb 0.00 in0.0 mm 0.00 in0.0 mm 0.00 in0.0 mm
04:04 AM 27.3°F-2.6°C 21.4°F-5.9°C 78% 0.9 mph NW1.4 kmh NW 6.0 mph9.7 kmh 30.39 in1029.1 mb 0.00 in0.0 mm 0.00 in0.0 mm 0.00 in0.0 mm
03:59 AM 27.3°F-2.6°C 21.0°F-6.1°C 77% 0.9 mph NW1.4 kmh NW 4.9 mph7.9 kmh 30.38 in1028.8 mb 0.00 in0.0 mm 0.00 in0.0 mm 0.00 in0.0 mm
03:54 AM 27.3°F-2.6°C 21.0°F-6.1°C 77% Calm Calm 2.9 mph4.7 kmh 30.37 in1028.4 mb 0.00 in0.0 mm 0.00 in0.0 mm 0.00 in0.0 mm
03:49 AM 27.5°F-2.5°C 21.2°F-6.0°C 77% Calm Calm 4.9 mph7.9 kmh 30.38 in1028.8 mb 0.00 in0.0 mm 0.00 in0.0 mm 0.00 in0.0 mm
03:44 AM 27.5°F-2.5°C 21.2°F-6.0°C 77% Calm Calm 2.9 mph4.7 kmh 30.38 in1028.8 mb 0.00 in0.0 mm 0.00 in0.0 mm 0.00 in0.0 mm
03:39 AM 27.7°F-2.4°C 21.0°F-6.1°C 76% Calm Calm 4.0 mph6.4 kmh 30.38 in1028.8 mb 0.00 in0.0 mm 0.00 in0.0 mm 0.00 in0.0 mm
03:34 AM 27.9°F-2.3°C 21.2°F-6.0°C 76% 0.9 mph NE1.4 kmh NE 4.0 mph6.4 kmh 30.37 in1028.4 mb 0.00 in0.0 mm 0.00 in0.0 mm 0.00 in0.0 mm
03:29 AM 27.9°F-2.3°C 21.2°F-6.0°C 76% 0.9 mph SE1.4 kmh SE 8.9 mph14.3 kmh 30.36 in1028.1 mb 0.00 in0.0 mm 0.00 in0.0 mm 0.00 in0.0 mm
03:24 AM 27.9°F-2.3°C 21.2°F-6.0°C 76% 0.9 mph N1.4 kmh N 8.9 mph14.3 kmh 30.37 in1028.4 mb 0.00 in0.0 mm 0.00 in0.0 mm 0.00 in0.0 mm
03:19 AM 28.0°F-2.2°C 21.4°F-5.9°C 76% Calm Calm 6.9 mph11.1 kmh 30.38 in1028.8 mb 0.00 in0.0 mm 0.00 in0.0 mm 0.00 in0.0 mm
03:14 AM 28.0°F-2.2°C 21.4°F-5.9°C 76% Calm Calm 0.9 mph1.4 kmh 30.40 in1029.5 mb 0.00 in0.0 mm 0.00 in0.0 mm 0.00 in0.0 mm
03:09 AM 28.0°F-2.2°C 21.4°F-5.9°C 76% 0.9 mph ENE1.4 kmh ENE 4.9 mph7.9 kmh 30.40 in1029.5 mb 0.00 in0.0 mm 0.00 in0.0 mm 0.00 in0.0 mm
03:04 AM 28.0°F-2.2°C 21.4°F-5.9°C 76% 0.9 mph NNE1.4 kmh NNE 4.0 mph6.4 kmh 30.40 in1029.5 mb 0.00 in0.0 mm 0.00 in0.0 mm 0.00 in0.0 mm
02:59 AM 28.0°F-2.2°C 21.4°F-5.9°C 76% Calm Calm 6.0 mph9.7 kmh 30.40 in1029.5 mb 0.00 in0.0 mm 0.00 in0.0 mm 0.00 in0.0 mm
02:54 AM 28.2°F-2.1°C 21.6°F-5.8°C 76% Calm Calm 0.9 mph1.4 kmh 30.40 in1029.5 mb 0.00 in0.0 mm 0.00 in0.0 mm 0.00 in0.0 mm
02:49 AM 28.2°F-2.1°C 21.6°F-5.8°C 76% Calm Calm 4.9 mph7.9 kmh 30.40 in1029.5 mb 0.00 in0.0 mm 0.00 in0.0 mm 0.00 in0.0 mm
02:44 AM 28.2°F-2.1°C 21.6°F-5.8°C 76% Calm Calm 2.0 mph3.2 kmh 30.40 in1029.5 mb 0.00 in0.0 mm 0.00 in0.0 mm 0.00 in0.0 mm
02:39 AM 28.2°F-2.1°C 21.6°F-5.8°C 76% Calm Calm 4.0 mph6.4 kmh 30.39 in1029.1 mb 0.00 in0.0 mm 0.00 in0.0 mm 0.00 in0.0 mm
02:34 AM 28.2°F-2.1°C 21.6°F-5.8°C 76% 0.9 mph NW1.4 kmh NW 4.9 mph7.9 kmh 30.39 in1029.1 mb 0.00 in0.0 mm 0.00 in0.0 mm 0.00 in0.0 mm
02:29 AM 28.4°F-2.0°C 21.6°F-5.8°C 75% 0.9 mph NNW1.4 kmh NNW 4.9 mph7.9 kmh 30.39 in1029.1 mb 0.00 in0.0 mm 0.00 in0.0 mm 0.00 in0.0 mm
02:24 AM 28.6°F-1.9°C 21.7°F-5.7°C 75% Calm Calm 4.0 mph6.4 kmh 30.38 in1028.8 mb 0.00 in0.0 mm 0.00 in0.0 mm 0.00 in0.0 mm
02:19 AM 28.6°F-1.9°C 21.7°F-5.7°C 75% Calm Calm 6.9 mph11.1 kmh 30.39 in1029.1 mb 0.00 in0.0 mm 0.00 in0.0 mm 0.00 in0.0 mm
02:14 AM 28.8°F-1.8°C 21.6°F-5.8°C 74% Calm Calm 2.9 mph4.7 kmh 30.39 in1029.1 mb 0.00 in0.0 mm 0.00 in0.0 mm 0.00 in0.0 mm
02:09 AM 28.8°F-1.8°C 21.6°F-5.8°C 74% 0.9 mph 1.4 kmh 2.9 mph4.7 kmh 30.39 in1029.1 mb 0.00 in0.0 mm 0.00 in0.0 mm 0.00 in0.0 mm
02:04 AM 28.8°F-1.8°C 21.2°F-6.0°C 73% 0.9 mph N1.4 kmh N 4.0 mph6.4 kmh 30.38 in1028.8 mb 0.00 in0.0 mm 0.00 in0.0 mm 0.00 in0.0 mm
01:59 AM 28.9°F-1.7°C 21.4°F-5.9°C 73% 0.9 mph NE1.4 kmh NE 4.0 mph6.4 kmh 30.38 in1028.8 mb 0.00 in0.0 mm 0.00 in0.0 mm 0.00 in0.0 mm
01:54 AM 28.9°F-1.7°C 21.7°F-5.7°C 74% 0.9 mph NE1.4 kmh NE 10.1 mph16.3 kmh 30.38 in1028.8 mb 0.00 in0.0 mm 0.00 in0.0 mm 0.00 in0.0 mm
01:48 AM 28.9°F-1.7°C 21.7°F-5.7°C 74% 0.9 mph NNE1.4 kmh NNE 4.9 mph7.9 kmh 30.39 in1029.1 mb 0.00 in0.0 mm 0.00 in0.0 mm 0.00 in0.0 mm
01:43 AM 29.1°F-1.6°C 21.6°F-5.8°C 73% 0.9 mph NNW1.4 kmh NNW 8.1 mph13.0 kmh 30.39 in1029.1 mb 0.00 in0.0 mm 0.00 in0.0 mm 0.00 in0.0 mm
01:38 AM 29.1°F-1.6°C 21.6°F-5.8°C 73% 2.0 mph N3.2 kmh N 4.9 mph7.9 kmh 30.38 in1028.8 mb 0.00 in0.0 mm 0.00 in0.0 mm 0.00 in0.0 mm
01:33 AM 29.1°F-1.6°C 21.6°F-5.8°C 73% 2.0 mph NE3.2 kmh NE 8.9 mph14.3 kmh 30.39 in1029.1 mb 0.00 in0.0 mm 0.00 in0.0 mm 0.00 in0.0 mm
01:28 AM 29.3°F-1.5°C 21.7°F-5.7°C 73% 0.9 mph NNW1.4 kmh NNW 11.0 mph17.7 kmh 30.39 in1029.1 mb 0.00 in0.0 mm 0.00 in0.0 mm 0.00 in0.0 mm
01:23 AM 29.3°F-1.5°C 21.4°F-5.9°C 72% Calm Calm 2.0 mph3.2 kmh 30.39 in1029.1 mb 0.00 in0.0 mm 0.00 in0.0 mm 0.00 in0.0 mm
01:18 AM 29.5°F-1.4°C 21.9°F-5.6°C 73% 0.9 mph NW1.4 kmh NW 8.1 mph13.0 kmh 30.39 in1029.1 mb 0.00 in0.0 mm 0.00 in0.0 mm 0.00 in0.0 mm
01:13 AM 29.7°F-1.3°C 22.1°F-5.5°C 73% 0.9 mph N1.4 kmh N 8.1 mph13.0 kmh 30.39 in1029.1 mb 0.00 in0.0 mm 0.00 in0.0 mm 0.00 in0.0 mm
01:08 AM 29.7°F-1.3°C 21.7°F-5.7°C 72% 0.9 mph N1.4 kmh N 8.1 mph13.0 kmh 30.39 in1029.1 mb 0.00 in0.0 mm 0.00 in0.0 mm 0.00 in0.0 mm
01:03 AM 29.7°F-1.3°C 21.7°F-5.7°C 72% 0.9 mph NW1.4 kmh NW 6.9 mph11.1 kmh 30.40 in1029.5 mb 0.00 in0.0 mm 0.00 in0.0 mm 0.00 in0.0 mm
12:58 AM 29.7°F-1.3°C 21.7°F-5.7°C 72% 0.9 mph NNW1.4 kmh NNW 6.9 mph11.1 kmh 30.40 in1029.5 mb 0.00 in0.0 mm 0.00 in0.0 mm 0.00 in0.0 mm
12:53 AM 29.8°F-1.2°C 21.9°F-5.6°C 72% 0.9 mph NNW1.4 kmh NNW 8.9 mph14.3 kmh 30.40 in1029.5 mb 0.00 in0.0 mm 0.00 in0.0 mm 0.00 in0.0 mm
12:48 AM 29.8°F-1.2°C 21.9°F-5.6°C 72% 0.9 mph NNW1.4 kmh NNW 8.1 mph13.0 kmh 30.39 in1029.1 mb 0.00 in0.0 mm 0.00 in0.0 mm 0.00 in0.0 mm
12:43 AM 29.8°F-1.2°C 21.9°F-5.6°C 72% 0.9 mph NNE1.4 kmh NNE 8.1 mph13.0 kmh 30.39 in1029.1 mb 0.00 in0.0 mm 0.00 in0.0 mm 0.00 in0.0 mm
12:38 AM 29.8°F-1.2°C 21.9°F-5.6°C 72% 0.9 mph NW1.4 kmh NW 8.9 mph14.3 kmh 30.39 in1029.1 mb 0.00 in0.0 mm 0.00 in0.0 mm 0.00 in0.0 mm
12:33 AM 30.0°F-1.1°C 21.7°F-5.7°C 71% 0.9 mph NNE1.4 kmh NNE 4.0 mph6.4 kmh 30.39 in1029.1 mb 0.00 in0.0 mm 0.00 in0.0 mm 0.00 in0.0 mm
12:28 AM 30.0°F-1.1°C 21.7°F-5.7°C 71% 0.9 mph N1.4 kmh N 4.0 mph6.4 kmh 30.39 in1029.1 mb 0.00 in0.0 mm 0.00 in0.0 mm 0.00 in0.0 mm
12:23 AM 30.0°F-1.1°C 21.7°F-5.7°C 71% 0.9 mph NW1.4 kmh NW 6.0 mph9.7 kmh 30.39 in1029.1 mb 0.00 in0.0 mm 0.00 in0.0 mm 0.00 in0.0 mm
12:18 AM 30.0°F-1.1°C 21.7°F-5.7°C 71% 0.9 mph NNW1.4 kmh NNW 8.9 mph14.3 kmh 30.38 in1028.8 mb 0.00 in0.0 mm 0.00 in0.0 mm 0.00 in0.0 mm
12:13 AM 30.2°F-1.0°C 21.9°F-5.6°C 71% 0.9 mph WNW1.4 kmh WNW 6.0 mph9.7 kmh 30.38 in1028.8 mb 0.00 in0.0 mm 0.00 in0.0 mm 0.00 in0.0 mm
12:08 AM 30.4°F-0.9°C 22.1°F-5.5°C 71% Calm Calm 4.9 mph7.9 kmh 30.39 in1029.1 mb 0.00 in0.0 mm 0.00 in0.0 mm 0.00 in0.0 mm
12:03 AM 30.4°F-0.9°C 22.1°F-5.5°C 71% 0.9 mph 1.4 kmh 6.0 mph9.7 kmh 30.39 in1029.1 mb 0.00 in0.0 mm 0.00 in0.0 mm 0.00 in0.0 mm